CGM2 weather

Smoky Lake (George Mcdougall Health Centre) Heliport
Smoky Lake, Alberta, Canada

Public forecast

Using degrees Celsius for public forecast. Weather courtesy of forecast.io.

Closest aviation weather report (METAR) to Smoky Lake (George Mcdougall Health Centre) Heliport

Closest report is Edmonton (CFB Namao) Heliport, 44.8 nm (83.1 km) SW. Retrieved 2019/12/16 10:00 UTC (18 seconds ago):

CYED 161000Z AUTO 27008KT 9SM OVC084 M06/M09 A2986 RMK SLP152

Closest aviation forecast (TAF) to Smoky Lake (George Mcdougall Health Centre) Heliport

Forecast is more than 12 hours old.

Closest forecast is Edmonton (CFB Namao) Heliport, 44.8 nm (83.1 km) SW. Retrieved 2019-12-13 00:33 UTC (3 days ago):

TAF CYED 122330Z 1300/1312 05005KT P6SM SCT012 OVC025 TEMPO 1300/1312 2SM -SN OVC012 RMK FCST BASED ON AUTO OBS NXT FCST BY 130600Z